Time;durP1;ratioP1;P1;durP2;ratioP2;P2;SDS_P1;SDS_P2;PMS_P1;PMS_P2;Temp;Humidity;BMP_temperature;BMP_pressure;BME280_temperature;BME280_humidity;BME280_pressure;Samples;Min_cycle;Max_cycle;Signal;HPM_P1;HPM_P2
2022/10/23 00:01:21;;;;;;;9.40;9.10;;;11.50;99.90;;;;;;5026102;28;20216;-81
2022/10/23 00:03:52;;;;;;;9.40;9.10;;;11.50;99.90;;;;;;5031893;28;20300;-82
2022/10/23 00:06:20;;;;;;;9.40;9.10;;;11.40;99.90;;;;;;5042364;28;20251;-81
2022/10/23 00:08:48;;;;;;;9.40;9.10;;;11.40;99.90;;;;;;5042395;28;20218;-82
2022/10/23 00:11:24;;;;;;;9.17;8.87;;;11.40;99.90;;;;;;5060141;28;20247;-81
2022/10/23 00:13:53;;;;;;;9.37;9.07;;;11.40;99.90;;;;;;5062604;28;20231;-82
2022/10/23 00:16:23;;;;;;;9.47;9.17;;;11.40;99.90;;;;;;5062799;28;20283;-81
2022/10/23 00:18:52;;;;;;;9.60;9.30;;;11.40;99.90;;;;;;5062323;28;20288;-82
2022/10/23 00:21:20;;;;;;;9.57;9.27;;;11.40;99.90;;;;;;5062399;28;20287;-82
2022/10/23 00:23:47;;;;;;;9.47;9.17;;;11.40;99.90;;;;;;5062665;28;20228;-81
2022/10/23 00:26:17;;;;;;;9.50;9.20;;;11.30;99.90;;;;;;5058130;28;20242;-81
2022/10/23 00:28:47;;;;;;;9.30;9.00;;;11.40;99.90;;;;;;5056477;28;20239;-81
2022/10/23 00:31:15;;;;;;;9.50;9.20;;;11.30;99.90;;;;;;5054288;28;20331;-81
2022/10/23 00:33:43;;;;;;;9.50;9.20;;;11.30;99.90;;;;;;5056259;28;20263;-82
2022/10/23 00:36:14;;;;;;;9.47;9.17;;;11.40;99.90;;;;;;5047166;28;20251;-81
2022/10/23 00:38:42;;;;;;;9.40;9.10;;;11.40;99.90;;;;;;5046306;28;21112;-81
2022/10/23 00:41:20;;;;;;;9.40;9.10;;;11.30;99.90;;;;;;5047471;28;20319;-82
2022/10/23 00:44:19;;;;;;;9.33;9.03;;;11.30;99.90;;;;;;5045940;28;20313;-81
2022/10/23 00:46:47;;;;;;;9.50;9.20;;;11.30;99.90;;;;;;5043699;28;20236;-81
2022/10/23 00:49:16;;;;;;;9.90;9.60;;;11.30;99.90;;;;;;5042448;28;20255;-81
2022/10/23 00:51:48;;;;;;;9.50;9.20;;;11.30;99.90;;;;;;5042389;28;20292;-82
2022/10/23 00:54:24;;;;;;;9.50;9.20;;;11.30;99.90;;;;;;5042866;28;20239;-82
2022/10/23 00:57:02;;;;;;;9.40;9.10;;;11.30;99.90;;;;;;5043118;28;20261;-82
2022/10/23 00:59:34;;;;;;;9.73;9.43;;;11.40;99.90;;;;;;5044114;28;20320;-80
2022/10/23 01:02:02;;;;;;;9.70;9.40;;;11.40;99.90;;;;;;5030191;28;20299;-81
2022/10/23 01:04:30;;;;;;;9.80;9.50;;;11.30;99.90;;;;;;5024376;28;20232;-81
2022/10/23 01:07:10;;;;;;;9.70;9.40;;;11.20;99.90;;;;;;5023954;28;20320;-80
2022/10/23 01:09:47;;;;;;;9.70;9.40;;;11.20;99.90;;;;;;5023169;28;20321;-80
2022/10/23 01:12:26;;;;;;;9.87;9.57;;;11.20;99.90;;;;;;5023050;28;20228;-81
2022/10/23 01:15:06;;;;;;;9.67;9.37;;;11.20;99.90;;;;;;5025021;28;20260;-79
2022/10/23 01:17:39;;;;;;;9.70;9.40;;;11.20;99.90;;;;;;5027503;28;20227;-80
2022/10/23 01:20:30;;;;;;;9.70;9.40;;;11.20;99.90;;;;;;5029306;28;20236;-81
2022/10/23 01:23:34;;;;;;;9.53;9.23;;;11.20;99.90;;;;;;5027066;28;20236;-79
2022/10/23 01:26:21;;;;;;;9.50;9.20;;;11.20;99.90;;;;;;5010848;28;20291;-80
2022/10/23 01:28:59;;;;;;;9.50;9.20;;;11.20;99.90;;;;;;5023627;28;20232;-81
2022/10/23 01:31:40;;;;;;;9.57;9.27;;;11.20;99.90;;;;;;5022704;28;20240;-81
2022/10/23 01:34:15;;;;;;;9.80;9.50;;;11.20;99.90;;;;;;5021956;28;20276;-81
2022/10/23 01:36:47;;;;;;;9.60;9.30;;;11.20;99.90;;;;;;5022379;28;20242;-81
2022/10/23 01:39:23;;;;;;;9.50;9.20;;;11.20;99.90;;;;;;5021846;28;20232;-80
2022/10/23 01:41:55;;;;;;;9.80;9.50;;;11.10;99.90;;;;;;5021770;28;20326;-80
2022/10/23 01:44:31;;;;;;;9.70;9.40;;;11.10;99.90;;;;;;5023034;28;20319;-80
2022/10/23 01:47:02;;;;;;;9.50;9.20;;;11.00;99.90;;;;;;5024190;28;20259;-81
2022/10/23 01:49:30;;;;;;;9.53;9.23;;;11.00;99.90;;;;;;5028818;28;20255;-80
2022/10/23 01:52:02;;;;;;;9.73;9.43;;;10.90;99.90;;;;;;5041646;28;20254;-81
2022/10/23 01:54:38;;;;;;;9.60;9.30;;;10.90;99.90;;;;;;5041365;28;20327;-81
2022/10/23 01:57:16;;;;;;;9.90;9.60;;;10.90;99.90;;;;;;5041759;28;20295;-80
2022/10/23 01:59:53;;;;;;;9.50;9.20;;;10.80;99.90;;;;;;5041379;28;20299;-81
2022/10/23 02:02:24;;;;;;;9.70;9.40;;;10.80;99.90;;;;;;5040783;28;20745;-80
2022/10/23 02:05:03;;;;;;;9.47;9.17;;;10.80;99.90;;;;;;5041423;28;20224;-81
2022/10/23 02:07:31;;;;;;;9.47;9.17;;;10.80;99.90;;;;;;5041940;28;20258;-81
2022/10/23 02:10:00;;;;;;;9.47;9.17;;;10.80;99.90;;;;;;5040396;28;20259;-80
2022/10/23 02:12:36;;;;;;;9.70;9.40;;;10.80;99.90;;;;;;5041223;28;20249;-80
2022/10/23 02:15:18;;;;;;;9.57;9.27;;;10.70;99.90;;;;;;5041791;28;20223;-81
2022/10/23 02:17:56;;;;;;;9.60;9.30;;;10.70;99.90;;;;;;5040833;28;20265;-81
2022/10/23 02:23:20;;;;;;;9.80;9.50;;;10.70;99.90;;;;;;5040405;28;20231;-80
2022/10/23 02:25:55;;;;;;;9.60;9.30;;;10.70;99.90;;;;;;5041063;28;20354;-81
2022/10/23 02:28:28;;;;;;;9.83;9.53;;;10.70;99.90;;;;;;5041420;28;20230;-81
2022/10/23 02:31:07;;;;;;;9.80;9.50;;;10.70;99.90;;;;;;5041437;28;20274;-80
2022/10/23 02:33:36;;;;;;;9.80;9.50;;;10.60;99.90;;;;;;5056659;28;20235;-80
2022/10/23 02:36:07;;;;;;;9.93;9.63;;;10.60;99.90;;;;;;5057946;28;20223;-80
2022/10/23 02:38:39;;;;;;;9.70;9.40;;;10.60;99.90;;;;;;5058314;28;20247;-81
2022/10/23 02:41:33;;;;;;;9.80;9.50;;;10.60;99.90;;;;;;5046052;28;20235;-81
2022/10/23 02:44:28;;;;;;;10.10;9.80;;;10.70;99.90;;;;;;5042454;28;20232;-80
2022/10/23 02:47:13;;;;;;;9.87;9.57;;;10.60;99.90;;;;;;5049966;28;20220;-79
2022/10/23 02:49:49;;;;;;;9.70;9.40;;;10.60;99.90;;;;;;5042345;28;20255;-81
2022/10/23 02:52:23;;;;;;;9.80;9.50;;;10.60;99.90;;;;;;5042077;28;20239;-80
2022/10/23 02:55:18;;;;;;;9.60;9.30;;;10.60;99.90;;;;;;5041173;28;20307;-81
2022/10/23 02:57:56;;;;;;;9.80;9.50;;;10.60;99.90;;;;;;5041536;28;20318;-81
2022/10/23 03:00:24;;;;;;;9.80;9.50;;;10.60;99.90;;;;;;5040665;28;20270;-81
2022/10/23 03:03:02;;;;;;;9.70;9.40;;;10.60;99.90;;;;;;5041242;28;20259;-80
2022/10/23 03:05:34;;;;;;;9.80;9.50;;;10.50;99.90;;;;;;5040260;28;20235;-80
2022/10/23 03:08:04;;;;;;;10.00;9.70;;;10.50;99.90;;;;;;5041013;28;20319;-81
2022/10/23 03:10:34;;;;;;;9.97;9.67;;;10.50;99.90;;;;;;5040050;28;20331;-81
2022/10/23 03:13:01;;;;;;;9.93;9.63;;;10.40;99.90;;;;;;5040446;28;20243;-80
2022/10/23 03:15:32;;;;;;;10.20;9.90;;;10.40;99.90;;;;;;5040038;28;20274;-80
2022/10/23 03:18:04;;;;;;;9.87;9.57;;;10.40;99.90;;;;;;5039675;28;20215;-81
2022/10/23 03:20:31;;;;;;;10.20;9.90;;;10.40;99.90;;;;;;5040238;28;20314;-80
2022/10/23 03:23:01;;;;;;;9.80;9.50;;;10.40;99.90;;;;;;5040863;28;20318;-81
2022/10/23 03:25:30;;;;;;;10.03;9.73;;;10.40;99.90;;;;;;5039618;28;20326;-81
2022/10/23 03:27:59;;;;;;;10.00;9.70;;;10.40;99.90;;;;;;5039884;28;20223;-80
2022/10/23 03:30:28;;;;;;;10.03;9.73;;;10.30;99.90;;;;;;5038961;28;20251;-81
2022/10/23 03:32:56;;;;;;;10.03;9.73;;;10.20;99.90;;;;;;5040175;28;20224;-80
2022/10/23 03:35:27;;;;;;;9.90;9.60;;;10.20;99.90;;;;;;5039582;28;20235;-81
2022/10/23 03:37:56;;;;;;;9.77;9.47;;;10.20;99.90;;;;;;5042362;28;20219;-80
2022/10/23 03:40:26;;;;;;;9.87;9.57;;;10.20;99.90;;;;;;5039617;28;20235;-81
2022/10/23 03:42:55;;;;;;;9.90;9.60;;;10.10;99.90;;;;;;5039746;28;20251;-80
2022/10/23 03:45:25;;;;;;;9.80;9.50;;;10.10;99.90;;;;;;5039723;28;20227;-81
2022/10/23 03:47:54;;;;;;;9.83;9.53;;;10.10;99.90;;;;;;5040553;28;20211;-81
2022/10/23 03:50:24;;;;;;;9.73;9.43;;;10.10;99.90;;;;;;5039090;28;20330;-81
2022/10/23 03:52:55;;;;;;;9.80;9.50;;;10.00;99.90;;;;;;5039763;28;20286;-81
2022/10/23 03:55:24;;;;;;;10.00;9.70;;;10.00;99.90;;;;;;5046794;28;20231;-80
2022/10/23 03:57:52;;;;;;;10.00;9.70;;;10.00;99.90;;;;;;5055050;28;20224;-81
2022/10/23 04:00:21;;;;;;;10.10;9.80;;;10.10;99.90;;;;;;5054389;28;20251;-80
2022/10/23 04:02:51;;;;;;;9.80;9.50;;;10.00;99.90;;;;;;5054393;28;20270;-81
2022/10/23 04:05:20;;;;;;;9.73;9.43;;;10.00;99.90;;;;;;5042261;28;20290;-82
2022/10/23 04:07:48;;;;;;;9.80;9.50;;;10.00;99.90;;;;;;5041510;28;20224;-80
2022/10/23 04:10:22;;;;;;;9.90;9.60;;;10.00;99.90;;;;;;5040569;28;20232;-81
2022/10/23 04:12:49;;;;;;;9.73;9.43;;;10.00;99.90;;;;;;5040388;28;20239;-81
2022/10/23 04:15:18;;;;;;;10.00;9.70;;;10.00;99.90;;;;;;5039766;28;20240;-80
2022/10/23 04:17:48;;;;;;;9.90;9.60;;;10.00;99.90;;;;;;5039852;28;20231;-81
2022/10/23 04:20:17;;;;;;;10.10;9.80;;;10.00;99.90;;;;;;5039897;28;20303;-81
2022/10/23 04:22:46;;;;;;;10.00;9.70;;;10.00;99.90;;;;;;5039143;28;20231;-80
2022/10/23 04:25:17;;;;;;;10.03;9.73;;;10.00;99.90;;;;;;5038841;28;20270;-81
2022/10/23 04:27:48;;;;;;;10.10;9.80;;;10.00;99.90;;;;;;5039138;28;20279;-81
2022/10/23 04:30:16;;;;;;;9.93;9.63;;;10.00;99.90;;;;;;5038581;28;20239;-81
2022/10/23 04:32:44;;;;;;;9.83;9.53;;;10.00;99.90;;;;;;5039037;28;20231;-81
2022/10/23 04:35:14;;;;;;;9.93;9.63;;;10.00;99.90;;;;;;5038912;28;20228;-81
2022/10/23 04:37:43;;;;;;;10.13;9.83;;;10.00;99.90;;;;;;5039265;28;20298;-81
2022/10/23 04:40:12;;;;;;;9.90;9.60;;;10.00;99.90;;;;;;5039207;28;20244;-81
2022/10/23 04:42:42;;;;;;;10.20;9.90;;;10.00;99.90;;;;;;5038800;28;20231;-80
2022/10/23 04:45:14;;;;;;;10.00;9.70;;;10.00;99.90;;;;;;5038897;28;20315;-81
2022/10/23 04:47:41;;;;;;;9.90;9.60;;;10.00;99.90;;;;;;5041924;28;20208;-81
2022/10/23 04:50:10;;;;;;;10.10;9.80;;;10.00;99.90;;;;;;5042893;28;20295;-80
2022/10/23 04:52:40;;;;;;;10.07;9.77;;;10.00;99.90;;;;;;5042440;28;20266;-80
2022/10/23 04:55:09;;;;;;;10.10;9.80;;;9.90;99.90;;;;;;5042331;28;20314;-81
2022/10/23 04:57:39;;;;;;;10.10;9.80;;;9.90;99.90;;;;;;5042419;28;20233;-80
2022/10/23 05:00:14;;;;;;;10.20;9.90;;;9.90;99.90;;;;;;5041243;28;20295;-81
2022/10/23 05:02:47;;;;;;;10.23;9.93;;;9.90;99.90;;;;;;5042498;28;20235;-80
2022/10/23 05:05:16;;;;;;;10.00;9.70;;;9.90;99.90;;;;;;5043268;28;20227;-81
2022/10/23 05:07:43;;;;;;;10.10;9.80;;;9.90;99.90;;;;;;5042773;28;20228;-80
2022/10/23 05:10:11;;;;;;;10.13;9.83;;;9.90;99.90;;;;;;5042372;28;20278;-80
2022/10/23 05:12:38;;;;;;;9.90;9.60;;;9.90;99.90;;;;;;5042147;28;20269;-80
2022/10/23 05:15:07;;;;;;;10.10;9.80;;;9.90;99.90;;;;;;5042289;28;20231;-80
2022/10/23 05:17:44;;;;;;;10.23;9.93;;;9.80;99.90;;;;;;5043227;28;20282;-80
2022/10/23 05:20:17;;;;;;;10.10;9.80;;;9.80;99.90;;;;;;5041484;28;20238;-81
2022/10/23 05:22:47;;;;;;;10.17;9.87;;;9.80;99.90;;;;;;5043023;28;20274;-81
2022/10/23 05:25:15;;;;;;;10.30;10.00;;;9.70;99.90;;;;;;5042419;28;20255;-80
2022/10/23 05:27:42;;;;;;;10.03;9.73;;;9.70;99.90;;;;;;5041751;28;20215;-80
2022/10/23 05:30:12;;;;;;;10.40;10.10;;;9.70;99.90;;;;;;5041648;28;20293;-80
2022/10/23 05:32:42;;;;;;;10.30;10.00;;;9.70;99.90;;;;;;5057759;22;20231;-83
2022/10/23 05:35:14;;;;;;;10.60;10.30;;;9.70;99.90;;;;;;5043061;28;20311;-83
2022/10/23 05:37:50;;;;;;;10.37;10.07;;;9.70;99.90;;;;;;5029499;28;20223;-84
2022/10/23 05:40:18;;;;;;;10.57;10.27;;;9.70;99.90;;;;;;5044980;28;20223;-83
2022/10/23 05:42:48;;;;;;;10.70;10.40;;;9.60;99.90;;;;;;5044426;28;20289;-84
2022/10/23 05:45:18;;;;;;;10.73;10.43;;;9.60;99.90;;;;;;5043354;28;20250;-83
2022/10/23 05:47:55;;;;;;;10.27;9.97;;;9.60;99.90;;;;;;5043925;28;20230;-83
2022/10/23 05:50:25;;;;;;;10.43;10.13;;;9.60;99.90;;;;;;5043956;28;20215;-83
2022/10/23 05:52:54;;;;;;;10.70;10.40;;;9.60;99.90;;;;;;5044225;28;20243;-83
2022/10/23 05:55:24;;;;;;;10.40;10.10;;;9.60;99.90;;;;;;5045009;28;20228;-83
2022/10/23 05:57:53;;;;;;;10.53;10.23;;;9.60;99.90;;;;;;5041748;28;20301;-83
2022/10/23 06:00:22;;;;;;;10.23;9.93;;;9.60;99.90;;;;;;5042295;28;20266;-83
2022/10/23 06:02:55;;;;;;;10.30;10.00;;;9.60;99.90;;;;;;5041520;28;20235;-84
2022/10/23 06:05:23;;;;;;;10.30;10.00;;;9.60;99.90;;;;;;5042440;28;20235;-83
2022/10/23 06:07:53;;;;;;;10.40;10.10;;;9.60;99.90;;;;;;5043468;28;20254;-83
2022/10/23 06:10:22;;;;;;;10.17;9.87;;;9.60;99.90;;;;;;5043254;28;20231;-84
2022/10/23 06:12:50;;;;;;;10.40;10.10;;;9.60;99.90;;;;;;5043432;28;20828;-84
2022/10/23 06:15:19;;;;;;;10.10;9.80;;;9.70;99.90;;;;;;5056638;28;20243;-83
2022/10/23 06:17:49;;;;;;;10.27;9.97;;;9.70;99.90;;;;;;5053456;28;20238;-83
2022/10/23 06:20:21;;;;;;;10.10;9.80;;;9.70;99.90;;;;;;5052353;28;20266;-83
2022/10/23 06:22:49;;;;;;;10.17;9.87;;;9.70;99.90;;;;;;5044639;28;20235;-83
2022/10/23 06:25:17;;;;;;;10.27;9.97;;;9.80;99.90;;;;;;5043651;28;20236;-83
2022/10/23 06:27:46;;;;;;;10.23;9.93;;;9.80;99.90;;;;;;5045265;28;20227;-82
2022/10/23 06:30:37;;;;;;;10.27;9.98;;;9.90;99.90;;;;;;5046146;28;20466;-86
2022/10/23 06:33:32;;;;;;;10.30;10.00;;;9.90;99.90;;;;;;5046433;28;20231;-88
2022/10/23 06:42:18;;;;;;;10.20;9.90;;;10.20;99.90;;;;;;5039109;28;20220;-87
2022/10/23 06:47:44;;;;;;;10.10;9.80;;;10.40;99.90;;;;;;5044421;28;20227;-87
2022/10/23 06:50:20;;;;;;;10.10;9.80;;;10.50;99.90;;;;;;5044222;28;20234;-89
2022/10/23 06:56:30;;;;;;;;;;;;;;;;;;;;;
2022/10/23 08:29:52;;;;;;;9.37;9.07;;;13.20;99.90;;;;;;5001861;28;20412;-83
2022/10/23 08:39:26;;;;;;;9.10;8.80;;;13.60;99.90;;;;;;5043724;28;20224;-83
2022/10/23 08:42:29;;;;;;;8.90;8.67;;;13.80;99.90;;;;;;5045469;28;20298;-86
2022/10/23 08:49:14;;;;;;;9.10;8.80;;;14.00;99.90;;;;;;5030863;28;20230;-83
2022/10/23 09:46:59;;;;;;;8.93;8.73;;;16.50;99.90;;;;;;4812143;29;20234;-83
2022/10/23 10:03:05;;;;;;;9.50;9.20;;;17.70;99.90;;;;;;4966775;28;20231;-83
2022/10/23 10:05:45;;;;;;;8.98;8.77;;;17.70;99.90;;;;;;4963670;28;20302;-83
2022/10/23 10:08:38;;;;;;;9.40;9.10;;;17.50;99.90;;;;;;4982831;28;20233;-84
2022/10/23 10:11:57;;;;;;;8.95;8.73;;;17.40;99.90;;;;;;5022814;28;20718;-83
2022/10/23 10:18:28;;;;;;;9.50;9.20;;;17.50;99.90;;;;;;5023205;28;20232;-83
2022/10/23 10:21:33;;;;;;;9.23;8.93;;;17.50;99.90;;;;;;5023350;28;20299;-83
2022/10/23 10:24:13;;;;;;;9.60;9.30;;;17.40;99.90;;;;;;5024315;28;20238;-83
2022/10/23 10:26:50;;;;;;;9.05;8.80;;;17.30;99.90;;;;;;5028759;28;20247;-83
2022/10/23 10:36:02;;;;;;;9.25;8.95;;;17.50;99.90;;;;;;5022816;28;20213;-83
2022/10/23 10:38:58;;;;;;;9.30;9.00;;;17.50;99.90;;;;;;5021013;28;20247;-83
2022/10/23 10:42:04;;;;;;;9.30;9.00;;;17.50;99.90;;;;;;5041473;28;20238;-82
2022/10/23 10:48:30;;;;;;;9.50;9.20;;;17.70;99.90;;;;;;5042384;28;20331;-82
2022/10/23 11:12:44;;;;;;;9.70;9.40;;;19.70;99.90;;;;;;4769841;29;20251;-85
2022/10/23 11:16:15;;;;;;;9.68;9.38;;;19.80;99.90;;;;;;4890249;29;20244;-86
2022/10/23 11:19:11;;;;;;;10.15;9.85;;;19.70;99.90;;;;;;4963885;28;20224;-83
2022/10/23 11:29:34;;;;;;;10.15;9.85;;;20.10;99.90;;;;;;4960281;28;20256;-84
2022/10/23 12:21:45;;;;;;;10.00;9.70;;;19.90;99.90;;;;;;4766653;29;20241;-91
2022/10/23 12:43:40;;;;;;;9.65;9.35;;;19.80;99.90;;;;;;4722347;30;20243;-92
2022/10/23 12:50:27;;;;;;;9.38;9.07;;;19.70;99.90;;;;;;4903956;29;20259;-90
2022/10/23 13:00:43;;;;;;;10.27;9.98;;;19.90;99.90;;;;;;4823976;29;20276;-90
2022/10/23 13:03:40;;;;;;;9.95;9.65;;;19.80;99.90;;;;;;4889897;29;20315;-90
2022/10/23 14:08:17;;;;;;;10.07;9.77;;;18.80;99.90;;;;;;4824282;29;20246;-89
2022/10/23 14:10:53;;;;;;;9.65;9.35;;;18.60;99.90;;;;;;4880078;29;20300;-89
2022/10/23 14:13:40;;;;;;;9.50;9.20;;;18.50;99.90;;;;;;5006859;28;20239;-89
2022/10/23 14:16:29;;;;;;;9.48;9.18;;;18.40;99.90;;;;;;5058540;28;20235;-89
2022/10/23 14:19:10;;;;;;;9.45;9.15;;;18.40;99.90;;;;;;5063051;28;20233;-89
2022/10/23 14:58:41;;;;;;;9.40;9.10;;;18.70;99.90;;;;;;4807030;29;20238;-88
2022/10/23 15:08:20;;;;;;;9.27;8.98;;;18.80;99.90;;;;;;4949834;28;20676;-83
2022/10/23 15:59:01;;;;;;;8.88;8.68;;;17.10;99.90;;;;;;5048703;28;20230;-88
2022/10/23 16:01:57;;;;;;;8.68;8.48;;;17.00;99.90;;;;;;5060960;28;20689;-89
2022/10/23 16:08:30;;;;;;;8.48;8.27;;;16.90;99.90;;;;;;5054507;28;20231;-89
2022/10/23 16:14:43;;;;;;;8.25;8.05;;;16.80;99.90;;;;;;5052505;28;20238;-87
2022/10/23 16:21:01;;;;;;;8.20;8.00;;;16.70;99.90;;;;;;5062598;28;20250;-88
2022/10/23 16:23:43;;;;;;;8.40;8.20;;;16.60;99.90;;;;;;5062986;28;20226;-89
2022/10/23 16:34:03;;;;;;;8.40;8.20;;;16.40;99.90;;;;;;5082386;28;20203;-90
2022/10/23 16:36:33;;;;;;;8.30;8.10;;;16.40;99.90;;;;;;5082528;28;20230;-86
2022/10/23 16:39:02;;;;;;;8.40;8.20;;;16.30;99.90;;;;;;5081109;28;20219;-86
2022/10/23 16:41:31;;;;;;;8.40;8.20;;;16.30;99.90;;;;;;5074791;28;20306;-87
2022/10/23 16:44:00;;;;;;;8.50;8.30;;;16.30;99.90;;;;;;5064987;28;20438;-86
2022/10/23 16:47:11;;;;;;;8.30;8.10;;;16.30;99.90;;;;;;5062696;28;20289;-89
2022/10/23 16:53:07;;;;;;;8.25;8.05;;;16.30;99.90;;;;;;5020736;28;20390;-88
2022/10/23 17:01:29;;;;;;;8.32;8.13;;;16.10;99.90;;;;;;5040659;28;20257;-89
2022/10/23 17:04:05;;;;;;;8.43;8.23;;;16.10;99.90;;;;;;5041060;28;20237;-90
2022/10/23 17:06:55;;;;;;;8.60;8.40;;;16.00;99.90;;;;;;5040894;28;20282;-89
2022/10/23 17:09:34;;;;;;;8.40;8.20;;;16.00;99.90;;;;;;5041104;28;20231;-89
2022/10/23 17:12:03;;;;;;;8.48;8.27;;;15.90;99.90;;;;;;5041278;28;20235;-89
2022/10/23 17:14:31;;;;;;;8.35;8.15;;;15.90;99.90;;;;;;5041448;28;20236;-89
2022/10/23 17:17:02;;;;;;;8.25;8.05;;;15.90;99.90;;;;;;5041951;28;20313;-89
2022/10/23 17:19:31;;;;;;;8.30;8.10;;;15.90;99.90;;;;;;5041702;28;20270;-90
2022/10/23 17:24:46;;;;;;;8.65;8.45;;;15.80;99.90;;;;;;5041945;28;20231;-90
2022/10/23 17:27:15;;;;;;;8.50;8.30;;;15.70;99.90;;;;;;5041226;28;20238;-89
2022/10/23 17:29:44;;;;;;;8.73;8.52;;;15.70;99.90;;;;;;5043506;28;20231;-90
2022/10/23 17:32:16;;;;;;;8.60;8.40;;;15.70;99.90;;;;;;5060731;28;20234;-91
2022/10/23 17:34:45;;;;;;;8.80;8.60;;;15.60;99.90;;;;;;5086153;22;20237;-78
2022/10/23 17:37:14;;;;;;;8.70;8.50;;;15.60;99.90;;;;;;5075961;28;20237;-78
2022/10/23 17:39:41;;;;;;;8.60;8.40;;;15.60;99.90;;;;;;5076193;28;20292;-79
2022/10/23 17:42:09;;;;;;;8.55;8.35;;;15.50;99.90;;;;;;5077090;28;20263;-78
2022/10/23 17:44:37;;;;;;;8.60;8.40;;;15.60;99.90;;;;;;5076786;28;20230;-78
2022/10/23 17:47:04;;;;;;;8.30;8.10;;;15.60;99.90;;;;;;5075963;28;20222;-78
2022/10/23 17:49:32;;;;;;;8.60;8.40;;;15.60;99.90;;;;;;5077329;28;20226;-77
2022/10/23 17:52:00;;;;;;;8.57;8.38;;;15.60;99.90;;;;;;5076822;28;20286;-77
2022/10/23 17:54:29;;;;;;;8.60;8.40;;;15.50;99.90;;;;;;5076148;28;20230;-77
2022/10/23 17:56:57;;;;;;;8.50;8.30;;;15.50;99.90;;;;;;5076511;28;20677;-77
2022/10/23 17:59:24;;;;;;;8.38;8.18;;;15.50;99.90;;;;;;5076177;28;20230;-76
2022/10/23 18:01:52;;;;;;;8.55;8.35;;;15.60;99.90;;;;;;5076595;28;20242;-77
2022/10/23 18:04:21;;;;;;;8.65;8.45;;;15.60;99.90;;;;;;5076169;28;20230;-77
2022/10/23 18:06:51;;;;;;;8.50;8.30;;;15.50;99.90;;;;;;5076497;28;20313;-77
2022/10/23 18:09:19;;;;;;;8.63;8.43;;;15.50;99.90;;;;;;5076451;28;20257;-78
2022/10/23 18:11:48;;;;;;;8.55;8.35;;;15.50;99.90;;;;;;5076706;28;20287;-77
2022/10/23 18:14:17;;;;;;;8.60;8.40;;;15.50;99.90;;;;;;5079522;28;20325;-77
2022/10/23 18:16:45;;;;;;;8.55;8.35;;;15.50;99.90;;;;;;5081392;28;20227;-76
2022/10/23 18:19:19;;;;;;;8.40;8.20;;;15.50;99.90;;;;;;5084206;28;20284;-77
2022/10/23 18:21:48;;;;;;;8.52;8.32;;;15.50;99.90;;;;;;5087086;28;20240;-78
2022/10/23 18:24:16;;;;;;;8.60;8.40;;;15.40;99.90;;;;;;5081421;28;20265;-78
2022/10/23 18:26:46;;;;;;;8.70;8.50;;;15.40;99.90;;;;;;5084912;28;20270;-77
2022/10/23 18:29:17;;;;;;;8.50;8.30;;;15.40;99.90;;;;;;5080679;28;20237;-77
2022/10/23 18:31:46;;;;;;;8.63;8.43;;;15.40;99.90;;;;;;5082627;28;20297;-77
2022/10/23 18:34:17;;;;;;;8.50;8.30;;;15.40;99.90;;;;;;5083622;28;20238;-77
2022/10/23 18:36:45;;;;;;;8.70;8.50;;;15.30;99.90;;;;;;5082905;28;20320;-77
2022/10/23 18:39:15;;;;;;;8.65;8.45;;;15.30;99.90;;;;;;5082590;28;20253;-77
2022/10/23 18:41:45;;;;;;;8.80;8.60;;;15.30;99.90;;;;;;5083073;28;20342;-77
2022/10/23 18:44:18;;;;;;;8.65;8.45;;;15.30;99.90;;;;;;5080415;28;20303;-77
2022/10/23 18:46:46;;;;;;;8.98;8.70;;;15.30;99.90;;;;;;5076838;28;20261;-77
2022/10/23 18:49:14;;;;;;;8.80;8.60;;;15.30;99.90;;;;;;5076675;28;20232;-77
2022/10/23 18:51:42;;;;;;;8.50;8.30;;;15.30;99.90;;;;;;5077183;28;21101;-78
2022/10/23 18:54:16;;;;;;;8.80;8.60;;;15.30;99.90;;;;;;5079515;28;20240;-79
2022/10/23 18:56:44;;;;;;;8.88;8.68;;;15.30;99.90;;;;;;5076312;28;20229;-77
2022/10/23 18:59:17;;;;;;;8.75;8.55;;;15.40;99.90;;;;;;5076280;28;20240;-77
2022/10/23 19:01:45;;;;;;;8.70;8.50;;;15.40;99.90;;;;;;5076116;28;20240;-77
2022/10/23 19:04:14;;;;;;;8.80;8.60;;;15.40;99.90;;;;;;5077429;28;20244;-76
2022/10/23 19:06:42;;;;;;;8.88;8.68;;;15.40;99.90;;;;;;5077309;28;20290;-77
2022/10/23 19:09:13;;;;;;;9.40;9.10;;;15.40;99.90;;;;;;5077287;28;20293;-77
2022/10/23 19:11:41;;;;;;;9.00;8.70;;;15.30;99.90;;;;;;5077368;28;20245;-77
2022/10/23 19:14:09;;;;;;;8.90;8.65;;;15.30;99.90;;;;;;5078526;28;20234;-77
2022/10/23 19:16:43;;;;;;;9.05;8.75;;;15.20;99.90;;;;;;5077822;28;20234;-78
2022/10/23 19:19:17;;;;;;;9.10;8.80;;;15.20;99.90;;;;;;5079084;28;20229;-77
2022/10/23 19:21:45;;;;;;;8.93;8.63;;;15.10;99.90;;;;;;5080298;28;20233;-77
2022/10/23 19:24:18;;;;;;;8.98;8.70;;;15.10;99.90;;;;;;5079013;28;20284;-76
2022/10/23 19:26:46;;;;;;;9.02;8.73;;;15.10;99.90;;;;;;5079200;28;20298;-77
2022/10/23 19:29:18;;;;;;;8.82;8.63;;;15.10;99.90;;;;;;5080221;28;20301;-78
2022/10/23 19:31:48;;;;;;;8.65;8.45;;;15.00;99.90;;;;;;5080177;28;20236;-77
2022/10/23 19:34:18;;;;;;;8.70;8.50;;;15.00;99.90;;;;;;5079080;28;20248;-78
2022/10/23 19:36:46;;;;;;;8.88;8.68;;;15.10;99.90;;;;;;5078387;28;20230;-78
2022/10/23 19:39:13;;;;;;;9.05;8.75;;;15.10;99.90;;;;;;5077982;28;20234;-78
2022/10/23 19:41:41;;;;;;;9.02;8.75;;;15.10;99.90;;;;;;5079571;28;20240;-78
2022/10/23 19:44:09;;;;;;;8.77;8.57;;;15.10;99.90;;;;;;5079350;28;20246;-78
2022/10/23 19:46:36;;;;;;;8.57;8.38;;;15.10;99.90;;;;;;5077114;28;20222;-77
2022/10/23 19:49:07;;;;;;;8.60;8.40;;;15.20;99.90;;;;;;5076445;28;20230;-77
2022/10/23 19:51:35;;;;;;;8.63;8.43;;;15.20;99.90;;;;;;5075748;28;20261;-78
2022/10/23 19:54:02;;;;;;;9.02;8.75;;;15.20;99.90;;;;;;5075069;28;20245;-79
2022/10/23 19:56:30;;;;;;;9.18;8.88;;;15.10;99.90;;;;;;5075804;28;20230;-78
2022/10/23 19:58:57;;;;;;;9.10;8.80;;;15.20;99.90;;;;;;5075652;28;20241;-77
2022/10/23 20:01:25;;;;;;;8.95;8.75;;;15.20;99.90;;;;;;5075910;28;20329;-77
2022/10/23 20:03:54;;;;;;;8.80;8.60;;;15.20;99.90;;;;;;5075279;28;20230;-78
2022/10/23 20:06:26;;;;;;;8.75;8.55;;;15.20;99.90;;;;;;5076044;28;20309;-78
2022/10/23 20:08:54;;;;;;;8.80;8.60;;;15.30;99.90;;;;;;5078711;28;20230;-77
2022/10/23 20:11:26;;;;;;;8.80;8.60;;;15.30;99.90;;;;;;5079885;28;20285;-78
2022/10/23 20:13:55;;;;;;;8.55;8.35;;;15.20;99.90;;;;;;5079953;28;20241;-77
2022/10/23 20:16:25;;;;;;;8.80;8.60;;;15.20;99.90;;;;;;5078524;28;20226;-77
2022/10/23 20:18:53;;;;;;;8.98;8.77;;;15.20;99.90;;;;;;5078933;28;20230;-77
2022/10/23 20:21:22;;;;;;;8.80;8.60;;;15.10;99.90;;;;;;5078400;28;20230;-77
2022/10/23 20:23:50;;;;;;;9.10;8.80;;;15.10;99.90;;;;;;5078556;28;20254;-78
2022/10/23 20:26:20;;;;;;;8.80;8.60;;;15.10;99.90;;;;;;5078996;28;20218;-77
2022/10/23 20:28:51;;;;;;;8.80;8.60;;;15.10;99.90;;;;;;5078950;28;20244;-78
2022/10/23 20:31:21;;;;;;;8.70;8.50;;;15.20;99.90;;;;;;5078638;28;20230;-78
2022/10/23 20:33:49;;;;;;;8.88;8.68;;;15.30;99.90;;;;;;5078409;28;20285;-77
2022/10/23 20:36:28;;;;;;;9.27;8.98;;;15.20;99.90;;;;;;5078915;28;20228;-78
2022/10/23 20:38:57;;;;;;;9.02;8.75;;;15.20;99.90;;;;;;5078633;28;20269;-78
2022/10/23 20:41:27;;;;;;;8.88;8.68;;;15.20;99.90;;;;;;5079188;28;20743;-78
2022/10/23 20:43:56;;;;;;;8.90;8.70;;;15.20;99.90;;;;;;5078898;28;20300;-79
2022/10/23 20:46:24;;;;;;;8.52;8.32;;;15.10;99.90;;;;;;5078603;28;20226;-78
2022/10/23 20:48:52;;;;;;;8.73;8.52;;;15.20;99.90;;;;;;5078005;28;20293;-77
2022/10/23 20:51:22;;;;;;;8.73;8.52;;;15.20;99.90;;;;;;5078157;28;20230;-78
2022/10/23 20:53:52;;;;;;;8.73;8.52;;;15.30;99.90;;;;;;5077903;28;20725;-77
2022/10/23 20:56:28;;;;;;;8.60;8.40;;;15.30;99.90;;;;;;5078796;28;20261;-78
2022/10/23 20:58:56;;;;;;;8.63;8.43;;;15.30;99.90;;;;;;5073465;28;20226;-79
2022/10/23 21:01:25;;;;;;;8.32;8.13;;;15.30;99.90;;;;;;5080557;28;20238;-80
2022/10/23 21:03:55;;;;;;;8.38;8.18;;;15.30;99.90;;;;;;5069616;28;20286;-78
2022/10/23 21:06:24;;;;;;;8.52;8.32;;;15.30;99.90;;;;;;5082389;28;20234;-78
2022/10/23 21:08:58;;;;;;;8.50;8.30;;;15.30;99.90;;;;;;5080028;28;20222;-79
2022/10/23 21:11:32;;;;;;;8.50;8.30;;;15.30;99.90;;;;;;5077395;28;20229;-78
2022/10/23 21:14:00;;;;;;;8.63;8.43;;;15.30;99.90;;;;;;5077078;28;20306;-77
2022/10/23 21:16:31;;;;;;;8.55;8.35;;;15.30;99.90;;;;;;5077544;28;20246;-79
2022/10/23 21:19:00;;;;;;;8.50;8.30;;;15.20;99.90;;;;;;5079333;28;20245;-79
2022/10/23 21:21:28;;;;;;;8.73;8.52;;;15.10;99.90;;;;;;5076972;28;20284;-79
2022/10/23 21:23:58;;;;;;;8.70;8.50;;;15.10;99.90;;;;;;5077070;28;20218;-80
2022/10/23 21:26:28;;;;;;;8.55;8.35;;;15.10;99.90;;;;;;5074122;28;20226;-78
2022/10/23 21:28:56;;;;;;;8.43;8.23;;;15.10;99.90;;;;;;5078918;28;20238;-78
2022/10/23 21:31:24;;;;;;;8.60;8.40;;;15.00;99.90;;;;;;5079291;28;20233;-78